createdAt,value
2019-01-29T00:00:07.262Z,49.03
2019-01-29T00:02:36.466Z,46.20
2019-01-29T00:05:05.655Z,49.13
2019-01-29T00:07:33.640Z,47.97
2019-01-29T00:10:01.581Z,49.33
2019-01-29T00:12:29.939Z,47.17
2019-01-29T00:14:58.247Z,46.77
2019-01-29T00:17:26.244Z,48.90
2019-01-29T00:19:54.488Z,45.27
2019-01-29T00:22:22.280Z,49.17
2019-01-29T00:24:50.228Z,45.33
2019-01-29T00:27:18.000Z,49.60
2019-01-29T00:29:45.860Z,46.67
2019-01-29T00:32:13.842Z,47.33
2019-01-29T00:34:41.961Z,47.37
2019-01-29T00:37:09.658Z,48.87
2019-01-29T00:39:37.715Z,54.63
2019-01-29T00:42:05.719Z,57.53
2019-01-29T00:44:33.693Z,55.17
2019-01-29T00:47:01.624Z,59.33
2019-01-29T00:49:29.574Z,56.43
2019-01-29T00:51:57.595Z,56.70
2019-01-29T00:54:25.593Z,58.73
2019-01-29T00:56:53.690Z,60.70
2019-01-29T00:59:21.892Z,54.77
2019-01-29T01:01:49.778Z,57.23
2019-01-29T01:04:17.698Z,60.83
2019-01-29T01:06:46.007Z,59.50
2019-01-29T01:09:14.061Z,59.53
2019-01-29T01:11:42.074Z,56.47
2019-01-29T01:14:10.001Z,62.83
2019-01-29T01:16:37.789Z,62.53
2019-01-29T01:19:06.193Z,61.43
2019-01-29T01:21:34.329Z,60.17
2019-01-29T01:24:02.270Z,58.67
2019-01-29T01:26:30.181Z,62.17
2019-01-29T01:28:58.143Z,63.23
2019-01-29T01:31:26.197Z,55.97
2019-01-29T01:33:54.248Z,61.43
2019-01-29T01:36:22.385Z,63.17
2019-01-29T01:38:50.347Z,60.53
2019-01-29T01:41:20.085Z,64.00
2019-01-29T01:43:47.976Z,58.93
2019-01-29T01:46:16.025Z,61.73
2019-01-29T01:48:44.004Z,58.97
2019-01-29T01:51:12.062Z,60.33
2019-01-29T01:53:40.033Z,57.50
2019-01-29T01:56:07.983Z,54.97
2019-01-29T01:58:39.310Z,55.37
2019-01-29T02:01:07.475Z,54.53
2019-01-29T02:03:35.697Z,53.07
2019-01-29T02:06:04.157Z,56.63
2019-01-29T02:08:32.133Z,39.20
2019-01-29T02:11:00.186Z,41.37
2019-01-29T02:13:29.517Z,42.57
2019-01-29T02:15:57.574Z,42.63
2019-01-29T02:18:25.538Z,40.40
2019-01-29T02:20:53.571Z,40.10
2019-01-29T02:23:21.810Z,41.70
2019-01-29T02:25:49.697Z,46.33
2019-01-29T02:28:17.806Z,44.93
2019-01-29T02:30:45.727Z,49.70
2019-01-29T02:33:13.601Z,53.87
2019-01-29T02:35:41.556Z,55.67
2019-01-29T02:38:09.449Z,56.37
2019-01-29T02:40:37.512Z,60.03
2019-01-29T02:43:05.270Z,59.83
2019-01-29T02:45:33.261Z,62.83
2019-01-29T02:48:01.291Z,61.47
2019-01-29T02:50:29.386Z,64.73
2019-01-29T02:52:57.369Z,63.13
2019-01-29T02:55:25.209Z,61.90
2019-01-29T02:57:53.412Z,65.87
2019-01-29T03:00:23.214Z,64.70
2019-01-29T03:02:51.503Z,71.47
2019-01-29T03:05:19.452Z,66.17
2019-01-29T03:07:47.540Z,65.70
2019-01-29T03:10:17.382Z,61.37
2019-01-29T03:12:46.447Z,60.93
2019-01-29T03:15:16.764Z,56.03
2019-01-29T03:17:44.848Z,52.50
2019-01-29T03:20:13.123Z,57.83
2019-01-29T03:22:41.173Z,57.83
2019-01-29T03:25:09.628Z,57.20
2019-01-29T03:27:37.497Z,65.37
2019-01-29T03:30:06.293Z,65.03
2019-01-29T03:32:34.331Z,69.97
2019-01-29T03:35:02.562Z,65.00
2019-01-29T03:37:30.738Z,64.77
2019-01-29T03:39:58.688Z,64.33
2019-01-29T03:42:26.612Z,63.30
2019-01-29T03:44:54.533Z,60.57
2019-01-29T03:47:22.493Z,60.60
2019-01-29T03:49:50.703Z,64.47
2019-01-29T03:52:18.744Z,67.43
2019-01-29T03:54:47.161Z,67.33
2019-01-29T03:57:15.321Z,65.67
2019-01-29T03:59:43.463Z,71.60
2019-01-29T04:02:11.578Z,65.40
2019-01-29T04:04:39.755Z,62.77
2019-01-29T04:07:07.566Z,59.30
2019-01-29T04:09:35.579Z,58.37
2019-01-29T04:12:04.665Z,61.33
2019-01-29T04:14:32.773Z,63.60
2019-01-29T04:17:00.877Z,63.73
2019-01-29T04:19:28.962Z,64.40
2019-01-29T04:21:56.972Z,62.23
2019-01-29T04:24:25.122Z,59.63
2019-01-29T04:26:52.977Z,59.07
2019-01-29T04:29:20.978Z,63.30
2019-01-29T04:31:48.945Z,66.37
2019-01-29T04:34:16.876Z,71.27
2019-01-29T04:36:45.188Z,71.37
2019-01-29T04:39:14.093Z,72.00
2019-01-29T04:41:42.428Z,65.77
2019-01-29T04:44:10.480Z,68.90
2019-01-29T04:46:38.733Z,76.37
2019-01-29T04:49:06.977Z,71.23
2019-01-29T04:51:34.955Z,72.40
2019-01-29T04:54:02.946Z,66.63
2019-01-29T04:56:30.934Z,69.70
2019-01-29T04:58:59.086Z,72.60
2019-01-29T05:01:27.245Z,66.83
2019-01-29T05:03:55.131Z,65.50
2019-01-29T05:06:23.195Z,69.80
2019-01-29T05:08:51.141Z,69.73
2019-01-29T05:11:19.189Z,76.47
2019-01-29T05:13:47.303Z,75.50
2019-01-29T05:16:15.338Z,71.57
2019-01-29T05:18:43.845Z,66.87
2019-01-29T05:21:11.910Z,68.57
2019-01-29T05:23:39.959Z,78.63
2019-01-29T05:26:08.074Z,75.47
2019-01-29T05:28:36.126Z,78.03
2019-01-29T05:31:04.398Z,73.67
2019-01-29T05:33:32.345Z,75.63
2019-01-29T05:36:00.251Z,68.30
2019-01-29T05:38:28.188Z,74.20
2019-01-29T05:40:56.249Z,77.47
2019-01-29T05:43:24.382Z,83.40
2019-01-29T05:45:52.425Z,80.00
2019-01-29T05:48:20.502Z,76.53
2019-01-29T05:50:48.559Z,80.20
2019-01-29T05:53:16.621Z,83.23
2019-01-29T05:55:44.492Z,81.23
2019-01-29T05:58:12.500Z,85.73
2019-01-29T06:00:41.285Z,81.40
2019-01-29T06:03:10.905Z,78.67
2019-01-29T06:05:40.435Z,78.20
2019-01-29T06:08:08.639Z,85.70
2019-01-29T06:10:36.805Z,81.40
2019-01-29T06:13:05.155Z,75.43
2019-01-29T06:15:33.232Z,85.43
2019-01-29T06:18:01.264Z,79.90
2019-01-29T06:20:29.374Z,79.30
2019-01-29T06:22:57.404Z,83.00
2019-01-29T06:25:25.517Z,78.93
2019-01-29T06:27:54.771Z,86.37
2019-01-29T06:30:23.015Z,79.73
2019-01-29T06:32:51.921Z,77.43
2019-01-29T06:35:20.145Z,82.00
2019-01-29T06:37:48.430Z,80.93
2019-01-29T06:40:18.450Z,77.33
2019-01-29T06:42:46.496Z,75.50
2019-01-29T06:45:14.896Z,68.23
2019-01-29T06:47:42.809Z,77.17
2019-01-29T06:50:13.262Z,72.10
2019-01-29T06:52:41.230Z,74.03
2019-01-29T06:55:11.037Z,70.90
2019-01-29T06:57:39.017Z,71.77
2019-01-29T07:00:09.333Z,60.67
2019-01-29T07:02:37.220Z,65.50
2019-01-29T07:05:07.132Z,62.27
2019-01-29T07:07:35.559Z,65.03
2019-01-29T07:10:05.464Z,63.87
2019-01-29T07:12:33.711Z,72.30
2019-01-29T07:15:01.545Z,70.53
2019-01-29T07:17:34.237Z,66.57
2019-01-29T07:20:05.037Z,67.27
2019-01-29T07:22:32.841Z,60.40
2019-01-29T07:25:01.202Z,58.87
2019-01-29T07:27:29.119Z,53.07
2019-01-29T07:29:57.062Z,50.70
2019-01-29T07:32:25.040Z,59.37
2019-01-29T07:34:52.992Z,55.70
2019-01-29T07:37:22.088Z,55.20
2019-01-29T07:39:50.348Z,54.33
2019-01-29T07:42:19.238Z,48.47
2019-01-29T07:44:47.330Z,49.30
2019-01-29T07:47:15.377Z,44.07
2019-01-29T07:49:43.447Z,44.83
2019-01-29T07:52:12.839Z,43.50
2019-01-29T07:54:40.959Z,47.83
2019-01-29T07:57:09.303Z,47.73
2019-01-29T07:59:37.288Z,49.77
2019-01-29T08:02:06.204Z,43.60
2019-01-29T08:04:34.261Z,36.47
2019-01-29T08:07:02.366Z,38.37
2019-01-29T08:09:32.021Z,40.30
2019-01-29T08:11:59.989Z,40.73
2019-01-29T08:14:28.078Z,60.40
2019-01-29T08:16:55.816Z,67.07
2019-01-29T08:19:23.919Z,62.13
2019-01-29T08:21:51.982Z,61.67
2019-01-29T08:24:21.001Z,57.97
2019-01-29T08:26:51.854Z,53.40
2019-01-29T08:29:19.727Z,50.83
2019-01-29T08:31:48.706Z,53.10
2019-01-29T08:34:16.666Z,49.60
2019-01-29T08:36:44.609Z,48.30
2019-01-29T08:39:12.768Z,46.27
2019-01-29T08:41:41.036Z,45.33
2019-01-29T08:44:09.038Z,40.10
2019-01-29T08:46:37.223Z,44.37
2019-01-29T08:49:05.178Z,39.57
2019-01-29T08:51:33.193Z,44.37
2019-01-29T08:54:01.123Z,37.10
2019-01-29T08:56:29.117Z,41.23
2019-01-29T08:58:57.184Z,39.53
2019-01-29T09:01:25.081Z,36.13
2019-01-29T09:03:53.084Z,36.80
2019-01-29T09:06:21.217Z,28.87
2019-01-29T09:08:49.082Z,32.23
2019-01-29T09:11:20.517Z,35.07
2019-01-29T09:13:48.583Z,33.97
2019-01-29T09:16:17.580Z,32.73
2019-01-29T09:18:45.709Z,31.60
2019-01-29T09:21:13.962Z,30.10
2019-01-29T09:23:41.907Z,28.90
2019-01-29T09:26:10.088Z,29.97
2019-01-29T09:28:38.188Z,27.50
2019-01-29T09:31:08.116Z,26.93
2019-01-29T09:33:36.135Z,31.80
2019-01-29T09:36:04.294Z,25.50
2019-01-29T09:38:32.149Z,19.10
2019-01-29T09:41:00.308Z,27.30
2019-01-29T09:43:28.209Z,19.43
2019-01-29T09:46:09.220Z,20.03
2019-01-29T09:48:37.212Z,19.10
2019-01-29T09:51:05.185Z,32.37
2019-01-29T09:53:33.366Z,22.43
2019-01-29T09:56:01.496Z,18.07
2019-01-29T09:58:29.329Z,13.53
2019-01-29T10:00:57.402Z,15.67
2019-01-29T10:03:25.310Z,15.73
2019-01-29T10:05:53.336Z,12.40
2019-01-29T10:08:21.440Z,11.80
2019-01-29T10:10:49.497Z,17.87
2019-01-29T10:13:17.360Z,16.80
2019-01-29T10:15:45.311Z,17.67
2019-01-29T10:18:13.285Z,14.97
2019-01-29T10:20:41.167Z,9.47
2019-01-29T10:23:09.229Z,2.90
2019-01-29T10:25:38.235Z,25.07
2019-01-29T10:28:06.209Z,23.13
2019-01-29T10:30:34.144Z,25.97
2019-01-29T10:33:02.135Z,26.63
2019-01-29T10:35:30.193Z,27.97
2019-01-29T10:37:58.101Z,3.20
2019-01-29T10:40:26.237Z,31.60
2019-01-29T10:42:54.861Z,23.23
2019-01-29T10:45:24.099Z,19.90
2019-01-29T10:47:51.896Z,21.70
2019-01-29T10:50:21.265Z,10.97
2019-01-29T10:52:49.109Z,2.37
2019-01-29T10:55:16.863Z,4.37
2019-01-29T10:57:44.928Z,4.47
2019-01-29T11:00:26.974Z,1.90
2019-01-29T11:02:54.639Z,1.57
2019-01-29T11:05:22.923Z,2.30
2019-01-29T11:07:50.586Z,5.80
2019-01-29T11:10:18.625Z,3.40
2019-01-29T11:12:46.518Z,2.13
2019-01-29T11:15:20.005Z,2.80
2019-01-29T11:17:48.197Z,5.87
2019-01-29T11:20:16.936Z,2.00
2019-01-29T11:22:45.314Z,2.40
2019-01-29T11:25:19.520Z,1.40
2019-01-29T11:27:49.107Z,2.80
2019-01-29T11:30:20.926Z,1.67
2019-01-29T11:32:49.120Z,3.23
2019-01-29T11:35:17.114Z,1.83
2019-01-29T11:37:47.993Z,3.33
2019-01-29T11:40:18.312Z,2.33
2019-01-29T11:42:45.999Z,3.77
2019-01-29T11:45:26.100Z,2.30
2019-01-29T11:47:53.703Z,2.60
2019-01-29T11:50:21.415Z,0.87
2019-01-29T11:52:50.813Z,1.20
2019-01-29T11:55:18.507Z,1.30
2019-01-29T11:57:48.867Z,2.30
2019-01-29T12:00:23.680Z,2.33
2019-01-29T12:02:51.457Z,5.77
2019-01-29T12:05:19.214Z,5.23
2019-01-29T12:07:47.061Z,1.40
2019-01-29T12:10:15.239Z,3.50
2019-01-29T12:12:43.270Z,1.67
2019-01-29T12:15:12.859Z,1.40
2019-01-29T12:17:40.856Z,1.00
2019-01-29T12:20:09.718Z,3.40
2019-01-29T12:22:37.643Z,2.53
2019-01-29T12:25:06.928Z,3.43
2019-01-29T12:27:34.613Z,5.60
2019-01-29T12:30:02.439Z,3.30
2019-01-29T12:32:30.127Z,8.30
2019-01-29T12:34:57.731Z,9.90
2019-01-29T12:37:25.378Z,3.30
2019-01-29T12:39:54.472Z,8.40
2019-01-29T12:42:24.619Z,8.03
2019-01-29T12:44:52.172Z,5.43
2019-01-29T12:47:20.255Z,4.67
2019-01-29T12:49:48.192Z,3.27
2019-01-29T12:52:28.182Z,1.63
2019-01-29T12:54:56.298Z,1.47
2019-01-29T12:57:24.302Z,1.73
2019-01-29T12:59:52.266Z,2.93
2019-01-29T13:02:20.146Z,1.53
2019-01-29T13:04:48.286Z,5.57
2019-01-29T13:07:16.318Z,2.33
2019-01-29T13:09:44.261Z,3.63
2019-01-29T13:12:12.399Z,2.67
2019-01-29T13:14:40.486Z,6.80
2019-01-29T13:17:08.556Z,1.73
2019-01-29T13:19:36.358Z,1.50
2019-01-29T13:22:04.078Z,1.67
2019-01-29T13:24:31.877Z,2.07
2019-01-29T13:26:59.599Z,1.30
2019-01-29T13:29:27.279Z,5.90
2019-01-29T13:31:55.014Z,5.80
2019-01-29T13:34:23.588Z,3.50
2019-01-29T13:36:51.590Z,1.80
2019-01-29T13:39:19.927Z,1.53
2019-01-29T13:41:48.042Z,2.60
2019-01-29T13:44:16.141Z,1.73
2019-01-29T13:46:44.143Z,1.33
2019-01-29T13:49:12.173Z,1.67
2019-01-29T13:51:40.330Z,1.23
2019-01-29T13:54:08.281Z,2.50
2019-01-29T13:56:38.917Z,3.20
2019-01-29T13:59:06.339Z,1.93
2019-01-29T14:01:34.375Z,1.53
2019-01-29T14:04:06.340Z,1.90
2019-01-29T14:06:32.614Z,1.00
2019-01-29T14:09:00.555Z,2.07
2019-01-29T14:11:28.512Z,1.20
2019-01-29T14:13:56.545Z,1.50
2019-01-29T14:16:24.819Z,1.20
2019-01-29T14:18:52.922Z,6.40
2019-01-29T14:21:21.343Z,1.40
2019-01-29T14:23:49.302Z,4.43
2019-01-29T14:26:17.699Z,1.40
2019-01-29T14:28:45.716Z,1.90
2019-01-29T14:31:13.840Z,3.53
2019-01-29T14:33:41.827Z,1.37
2019-01-29T14:36:16.586Z,0.97
2019-01-29T14:39:09.165Z,12.00
2019-01-29T14:41:37.459Z,13.33
2019-01-29T14:44:08.480Z,15.03
2019-01-29T14:46:36.548Z,12.23
2019-01-29T14:49:04.720Z,15.73
2019-01-29T14:51:32.772Z,13.20
2019-01-29T14:54:00.913Z,15.33
2019-01-29T14:56:29.344Z,12.50
2019-01-29T14:58:57.459Z,12.47
2019-01-29T15:01:25.760Z,11.33
2019-01-29T15:03:53.916Z,15.10
2019-01-29T15:06:22.047Z,15.37
2019-01-29T15:08:50.298Z,17.73
2019-01-29T15:11:19.132Z,19.00
2019-01-29T15:13:47.040Z,19.43
2019-01-29T15:16:30.203Z,18.10
2019-01-29T15:19:03.641Z,17.07
2019-01-29T15:21:37.776Z,17.10
2019-01-29T15:24:01.759Z,17.63
2019-01-29T15:26:29.611Z,19.13
2019-01-29T15:28:57.637Z,18.47
2019-01-29T15:31:25.653Z,18.30
2019-01-29T15:33:53.479Z,16.43
2019-01-29T15:36:21.465Z,16.93
2019-01-29T15:38:49.351Z,21.47
2019-01-29T15:41:17.319Z,17.07
2019-01-29T15:43:45.307Z,18.43
2019-01-29T15:46:13.440Z,16.80
2019-01-29T15:48:41.142Z,14.60
2019-01-29T15:51:08.967Z,14.30
2019-01-29T15:53:37.000Z,13.83
2019-01-29T15:56:05.034Z,14.90
2019-01-29T15:58:32.912Z,15.93
2019-01-29T16:01:00.899Z,14.23
2019-01-29T16:03:29.868Z,16.77
2019-01-29T16:05:57.916Z,15.90
2019-01-29T16:08:26.013Z,13.43
2019-01-29T16:10:54.019Z,13.23
2019-01-29T16:13:22.097Z,14.97
2019-01-29T16:15:50.040Z,15.70
2019-01-29T16:18:18.229Z,14.33
2019-01-29T16:20:46.238Z,12.27
2019-01-29T16:23:14.444Z,13.20
2019-01-29T16:25:42.581Z,13.27
2019-01-29T16:28:10.560Z,14.40
2019-01-29T16:30:38.736Z,15.97
2019-01-29T16:33:06.964Z,19.90
2019-01-29T16:35:35.212Z,15.20
2019-01-29T16:38:03.834Z,17.83
2019-01-29T16:40:32.134Z,20.10
2019-01-29T16:43:00.182Z,16.47
2019-01-29T16:45:29.941Z,16.83
2019-01-29T16:47:58.114Z,18.43
2019-01-29T16:50:28.104Z,15.27
2019-01-29T16:52:56.224Z,17.63
2019-01-29T16:55:24.601Z,13.93
2019-01-29T16:57:52.910Z,17.00
2019-01-29T17:00:25.489Z,17.77
2019-01-29T17:02:53.534Z,22.13
2019-01-29T17:05:21.799Z,22.20
2019-01-29T17:07:49.833Z,21.80
2019-01-29T17:10:18.320Z,16.87
2019-01-29T17:12:46.172Z,19.30
2019-01-29T17:15:19.276Z,14.87
2019-01-29T17:17:47.286Z,16.60
2019-01-29T17:20:17.843Z,18.30
2019-01-29T17:22:45.925Z,18.07
2019-01-29T17:25:13.839Z,18.40
2019-01-29T17:27:41.759Z,17.63
2019-01-29T17:30:14.193Z,17.00
2019-01-29T17:32:42.139Z,18.10
2019-01-29T17:35:10.223Z,18.33
2019-01-29T17:37:38.121Z,19.47
2019-01-29T17:40:07.076Z,19.57
2019-01-29T17:42:35.071Z,20.13
2019-01-29T17:45:03.033Z,19.17
2019-01-29T17:47:32.077Z,25.13
2019-01-29T17:50:01.724Z,20.30
2019-01-29T17:52:29.559Z,17.27
2019-01-29T17:54:57.668Z,16.50
2019-01-29T17:57:25.729Z,20.07
2019-01-29T17:59:53.597Z,19.27
2019-01-29T18:02:21.433Z,19.30
2019-01-29T18:04:49.332Z,22.77
2019-01-29T18:07:17.340Z,19.00
2019-01-29T18:09:45.359Z,18.70
2019-01-29T18:12:13.394Z,18.63
2019-01-29T18:14:41.495Z,17.77
2019-01-29T18:17:09.566Z,17.33
2019-01-29T18:19:37.591Z,17.63
2019-01-29T18:22:05.713Z,18.07
2019-01-29T18:24:33.772Z,18.30
2019-01-29T18:27:01.813Z,17.43
2019-01-29T18:29:29.832Z,17.80
2019-01-29T18:31:57.988Z,18.63
2019-01-29T18:34:26.133Z,19.47
2019-01-29T18:36:54.141Z,16.77
2019-01-29T18:39:23.655Z,19.93
2019-01-29T18:41:51.697Z,19.27
2019-01-29T18:44:19.643Z,22.60
2019-01-29T18:46:47.666Z,19.40
2019-01-29T18:49:15.717Z,20.17
2019-01-29T18:51:43.822Z,20.70
2019-01-29T18:54:11.865Z,18.63
2019-01-29T18:56:39.959Z,19.83
2019-01-29T18:59:08.023Z,19.30
2019-01-29T19:01:36.313Z,19.23
2019-01-29T19:04:08.472Z,24.93
2019-01-29T19:06:36.648Z,23.10
2019-01-29T19:09:06.979Z,26.53
2019-01-29T19:11:34.903Z,33.60
2019-01-29T19:14:03.164Z,25.43
2019-01-29T19:16:31.178Z,22.50
2019-01-29T19:18:59.244Z,25.27
2019-01-29T19:21:27.350Z,23.33
2019-01-29T19:23:55.282Z,23.50
2019-01-29T19:26:23.204Z,22.60
2019-01-29T19:28:51.307Z,21.17
2019-01-29T19:31:19.344Z,24.20
2019-01-29T19:33:47.401Z,26.33
2019-01-29T19:36:15.306Z,29.70
2019-01-29T19:38:43.235Z,29.57
2019-01-29T19:41:13.905Z,27.97
2019-01-29T19:43:42.030Z,26.30
2019-01-29T19:46:09.863Z,25.83
2019-01-29T19:48:38.106Z,24.73
2019-01-29T19:51:06.014Z,25.13
2019-01-29T19:53:34.109Z,27.57
2019-01-29T19:56:02.091Z,22.83
2019-01-29T19:58:32.346Z,26.20
2019-01-29T20:01:00.033Z,25.07
2019-01-29T20:03:27.988Z,26.77
2019-01-29T20:05:56.443Z,26.17
2019-01-29T20:08:24.334Z,23.83
2019-01-29T20:10:52.263Z,25.57
2019-01-29T20:13:20.255Z,26.80
2019-01-29T20:15:48.302Z,27.30
2019-01-29T20:18:16.419Z,24.97
2019-01-29T20:20:44.349Z,26.33
2019-01-29T20:23:12.255Z,29.97
2019-01-29T20:25:40.178Z,26.70
2019-01-29T20:28:09.125Z,27.57
2019-01-29T20:30:38.183Z,28.77
2019-01-29T20:33:06.724Z,32.43
2019-01-29T20:35:35.183Z,28.37
2019-01-29T20:38:03.349Z,27.77
2019-01-29T20:40:31.321Z,31.43
2019-01-29T20:42:59.304Z,31.40
2019-01-29T20:45:27.360Z,30.40
2019-01-29T20:47:55.359Z,33.20
2019-01-29T20:50:28.821Z,33.53
2019-01-29T20:52:57.804Z,29.20
2019-01-29T20:55:25.881Z,32.73
2019-01-29T20:57:53.930Z,33.57
2019-01-29T21:00:24.971Z,32.57
2019-01-29T21:02:52.896Z,36.90
2019-01-29T21:05:21.219Z,30.47
2019-01-29T21:07:49.036Z,30.80
2019-01-29T21:10:18.474Z,30.83
2019-01-29T21:12:46.524Z,32.60
2019-01-29T21:15:15.826Z,31.20
2019-01-29T21:17:44.036Z,30.27
2019-01-29T21:20:14.444Z,32.43
2019-01-29T21:22:42.592Z,33.33
2019-01-29T21:25:10.684Z,31.40
2019-01-29T21:27:38.928Z,30.93
2019-01-29T21:30:15.271Z,31.77
2019-01-29T21:32:43.364Z,31.60
2019-01-29T21:35:11.434Z,35.00
2019-01-29T21:37:39.522Z,33.07
2019-01-29T21:40:08.048Z,34.27
2019-01-29T21:42:36.181Z,32.00
2019-01-29T21:45:05.562Z,35.53
2019-01-29T21:47:33.695Z,36.03
2019-01-29T21:50:11.374Z,34.67
2019-01-29T21:52:31.792Z,31.97
2019-01-29T21:54:59.645Z,34.10
2019-01-29T21:57:27.733Z,33.03
2019-01-29T21:59:55.980Z,33.17
2019-01-29T22:02:25.180Z,32.67
2019-01-29T22:04:53.398Z,34.13
2019-01-29T22:07:22.564Z,34.73
2019-01-29T22:09:50.455Z,33.63
2019-01-29T22:12:18.300Z,31.83
2019-01-29T22:14:48.161Z,32.30
2019-01-29T22:17:16.251Z,33.50
2019-01-29T22:19:44.201Z,31.57
2019-01-29T22:22:12.245Z,33.53
2019-01-29T22:24:40.242Z,29.93
2019-01-29T22:27:08.052Z,32.07
2019-01-29T22:29:36.172Z,30.33
2019-01-29T22:32:06.354Z,33.77
2019-01-29T22:34:33.957Z,31.20
2019-01-29T22:37:01.598Z,31.57
2019-01-29T22:39:29.698Z,33.43
2019-01-29T22:41:57.758Z,34.00
2019-01-29T22:44:25.706Z,33.50
2019-01-29T22:46:53.671Z,32.30
2019-01-29T22:49:21.740Z,32.20
2019-01-29T22:51:49.814Z,31.83
2019-01-29T22:54:17.894Z,31.10
2019-01-29T22:56:45.793Z,29.60
2019-01-29T22:59:14.025Z,30.70
2019-01-29T23:01:42.258Z,40.60
2019-01-29T23:04:21.869Z,38.40
2019-01-29T23:07:10.904Z,36.20
2019-01-29T23:09:38.895Z,35.07
2019-01-29T23:12:06.702Z,39.27
2019-01-29T23:14:34.512Z,37.50
2019-01-29T23:17:02.603Z,36.97
2019-01-29T23:19:30.588Z,38.37
2019-01-29T23:21:58.440Z,34.77
2019-01-29T23:24:26.491Z,36.30
2019-01-29T23:26:54.521Z,37.37
2019-01-29T23:29:22.536Z,35.30
2019-01-29T23:31:50.567Z,33.80
2019-01-29T23:34:18.474Z,33.90
2019-01-29T23:36:46.394Z,34.33
2019-01-29T23:39:14.424Z,32.77
2019-01-29T23:41:42.439Z,30.20
2019-01-29T23:44:10.537Z,34.60
2019-01-29T23:46:38.584Z,35.10
2019-01-29T23:49:06.765Z,32.63
2019-01-29T23:51:34.831Z,34.63
2019-01-29T23:54:03.075Z,32.70
2019-01-29T23:56:30.956Z,32.80
2019-01-29T23:58:59.078Z,35.67
